createdAt,value
2018-05-13T00:00:00.291Z,16.30
2018-05-13T00:02:27.708Z,16.28
2018-05-13T00:04:55.120Z,16.26
2018-05-13T00:07:22.564Z,16.20
2018-05-13T00:09:49.984Z,16.14
2018-05-13T00:12:17.403Z,16.11
2018-05-13T00:14:44.828Z,16.11
2018-05-13T00:17:12.247Z,16.11
2018-05-13T00:19:39.677Z,16.12
2018-05-13T00:22:07.105Z,16.09
2018-05-13T00:24:34.533Z,16.05
2018-05-13T00:27:01.956Z,15.98
2018-05-13T00:29:29.376Z,15.95
2018-05-13T00:31:57.104Z,15.95
2018-05-13T00:34:24.513Z,15.95
2018-05-13T00:36:51.939Z,15.95
2018-05-13T00:39:19.386Z,15.93
2018-05-13T00:41:46.801Z,15.88
2018-05-13T00:44:14.232Z,15.85
2018-05-13T00:46:41.662Z,15.80
2018-05-13T00:49:09.097Z,15.79
2018-05-13T00:51:36.745Z,15.78
2018-05-13T00:54:16.044Z,15.76
2018-05-13T00:56:43.786Z,15.74
2018-05-13T00:59:11.210Z,15.71
2018-05-13T01:01:38.697Z,15.68
2018-05-13T01:04:06.396Z,15.61
2018-05-13T01:06:34.728Z,15.58
2018-05-13T01:09:02.145Z,15.56
2018-05-13T01:11:29.584Z,15.54
2018-05-13T01:13:57.004Z,15.53
2018-05-13T01:16:24.456Z,15.54
2018-05-13T01:18:51.866Z,15.53
2018-05-13T01:21:19.284Z,15.51
2018-05-13T01:23:46.732Z,15.50
2018-05-13T01:26:14.152Z,15.49
2018-05-13T01:28:41.926Z,15.49
2018-05-13T01:31:09.331Z,15.48
2018-05-13T01:33:36.748Z,15.46
2018-05-13T01:36:04.180Z,15.44
2018-05-13T01:38:31.594Z,15.41
2018-05-13T01:40:59.026Z,15.37
2018-05-13T01:43:26.460Z,15.33
2018-05-13T01:45:53.885Z,15.29
2018-05-13T01:48:21.332Z,15.26
2018-05-13T01:50:48.798Z,15.23
2018-05-13T01:53:16.172Z,15.18
2018-05-13T01:55:43.604Z,15.15
2018-05-13T01:58:11.027Z,15.13
2018-05-13T02:00:38.468Z,15.12
2018-05-13T02:03:05.883Z,15.10
2018-05-13T02:05:33.312Z,15.06
2018-05-13T02:08:00.764Z,14.98
2018-05-13T02:10:28.192Z,14.96
2018-05-13T02:12:55.600Z,14.96
2018-05-13T02:15:23.021Z,14.97
2018-05-13T02:17:50.801Z,14.96
2018-05-13T02:20:18.222Z,14.96
2018-05-13T02:22:45.640Z,14.98
2018-05-13T02:25:13.072Z,14.99
2018-05-13T02:27:40.494Z,14.98
2018-05-13T02:30:08.079Z,14.97
2018-05-13T02:32:35.489Z,14.92
2018-05-13T02:35:02.904Z,14.83
2018-05-13T02:37:30.349Z,14.82
2018-05-13T02:39:57.757Z,14.79
2018-05-13T02:42:25.176Z,14.78
2018-05-13T02:44:52.606Z,14.73
2018-05-13T02:47:20.050Z,14.67
2018-05-13T02:49:47.476Z,14.68
2018-05-13T02:52:14.900Z,14.69
2018-05-13T02:54:42.316Z,14.72
2018-05-13T02:57:09.756Z,14.74
2018-05-13T02:59:37.164Z,14.74
2018-05-13T03:02:04.594Z,14.72
2018-05-13T03:04:32.004Z,14.70
2018-05-13T03:06:59.432Z,14.68
2018-05-13T03:09:27.252Z,14.68
2018-05-13T03:11:54.662Z,14.69
2018-05-13T03:14:22.076Z,14.70
2018-05-13T03:16:49.504Z,14.66
2018-05-13T03:19:16.916Z,14.60
2018-05-13T03:21:44.710Z,14.59
2018-05-13T03:24:12.129Z,14.57
2018-05-13T03:26:39.544Z,14.56
2018-05-13T03:29:06.980Z,14.56
2018-05-13T03:31:34.399Z,14.56
2018-05-13T03:34:01.841Z,14.57
2018-05-13T03:36:29.262Z,14.58
2018-05-13T03:38:56.995Z,14.62
2018-05-13T03:41:24.437Z,14.63
2018-05-13T03:43:51.848Z,14.64
2018-05-13T03:46:19.280Z,14.65
2018-05-13T03:48:46.705Z,14.70
2018-05-13T03:51:14.119Z,14.73
2018-05-13T03:53:41.559Z,14.77
2018-05-13T03:56:08.969Z,14.78
2018-05-13T03:58:36.399Z,14.85
2018-05-13T04:01:03.824Z,14.89
2018-05-13T04:03:31.586Z,14.91
2018-05-13T04:05:58.996Z,14.94
2018-05-13T04:08:47.033Z,14.95
2018-05-13T04:11:26.137Z,14.99
2018-05-13T04:14:05.720Z,15.03
2018-05-13T04:16:33.811Z,15.09
2018-05-13T04:19:01.236Z,15.19
2018-05-13T04:21:28.685Z,15.28
2018-05-13T04:23:56.115Z,15.36
2018-05-13T04:26:23.540Z,15.42
2018-05-13T04:28:50.970Z,15.50
2018-05-13T04:31:18.392Z,15.56
2018-05-13T04:33:45.817Z,15.68
2018-05-13T04:36:13.242Z,15.82
2018-05-13T04:38:40.652Z,15.91
2018-05-13T04:41:08.392Z,16.15
2018-05-13T04:43:35.808Z,16.59
2018-05-13T04:46:03.229Z,17.08
2018-05-13T04:48:30.662Z,17.53
2018-05-13T04:50:58.092Z,17.93
2018-05-13T04:53:25.504Z,18.36
2018-05-13T04:55:52.916Z,18.84
2018-05-13T04:58:20.348Z,19.39
2018-05-13T05:00:47.772Z,19.84
2018-05-13T05:03:15.192Z,20.16
2018-05-13T05:05:42.627Z,20.50
2018-05-13T05:08:10.041Z,20.73
2018-05-13T05:10:37.475Z,20.92
2018-05-13T05:13:04.899Z,21.06
2018-05-13T05:15:32.315Z,21.34
2018-05-13T05:17:59.898Z,21.57
2018-05-13T05:20:27.323Z,21.72
2018-05-13T05:22:54.765Z,21.91
2018-05-13T05:25:22.172Z,22.02
2018-05-13T05:27:49.783Z,22.11
2018-05-13T05:30:17.104Z,22.30
2018-05-13T05:32:44.853Z,22.67
2018-05-13T05:35:12.256Z,23.13
2018-05-13T05:37:39.673Z,23.58
2018-05-13T05:40:07.397Z,23.93
2018-05-13T05:42:34.808Z,24.52
2018-05-13T05:45:02.207Z,24.78
2018-05-13T05:47:29.712Z,25.08
2018-05-13T05:49:57.114Z,25.25
2018-05-13T05:52:24.569Z,24.87
2018-05-13T05:54:52.272Z,24.54
2018-05-13T05:57:19.692Z,24.06
2018-05-13T05:59:47.094Z,23.62
2018-05-13T06:02:14.523Z,23.29
2018-05-13T06:04:41.927Z,23.21
2018-05-13T06:07:09.344Z,23.05
2018-05-13T06:09:36.769Z,23.31
2018-05-13T06:12:04.173Z,23.88
2018-05-13T06:14:31.595Z,24.43
2018-05-13T06:16:59.357Z,24.94
2018-05-13T06:19:26.763Z,25.23
2018-05-13T06:21:54.178Z,25.48
2018-05-13T06:24:21.592Z,25.71
2018-05-13T06:26:49.000Z,26.12
2018-05-13T06:29:16.610Z,26.62
2018-05-13T06:31:44.285Z,26.83
2018-05-13T06:34:11.684Z,26.94
2018-05-13T06:36:39.149Z,26.77
2018-05-13T06:39:06.612Z,26.78
2018-05-13T06:41:34.031Z,26.96
2018-05-13T06:44:01.735Z,26.85
2018-05-13T06:46:29.203Z,27.00
2018-05-13T06:48:56.628Z,27.14
2018-05-13T06:51:24.160Z,27.24
2018-05-13T06:53:51.460Z,27.32
2018-05-13T06:56:18.886Z,27.58
2018-05-13T06:58:46.296Z,27.72
2018-05-13T07:01:13.751Z,27.55
2018-05-13T07:03:41.161Z,27.32
2018-05-13T07:06:08.572Z,27.47
2018-05-13T07:08:36.231Z,27.57
2018-05-13T07:11:03.645Z,27.75
2018-05-13T07:13:31.039Z,28.05
2018-05-13T07:15:58.635Z,28.45
2018-05-13T07:18:26.046Z,28.89
2018-05-13T07:20:53.447Z,29.08
2018-05-13T07:23:20.872Z,28.80
2018-05-13T07:25:48.286Z,28.81
2018-05-13T07:28:15.700Z,28.99
2018-05-13T07:30:43.119Z,28.85
2018-05-13T07:33:10.529Z,28.97
2018-05-13T07:35:38.294Z,29.02
2018-05-13T07:38:05.699Z,28.91
2018-05-13T07:40:33.104Z,29.08
2018-05-13T07:43:00.519Z,29.36
2018-05-13T07:45:27.933Z,29.40
2018-05-13T07:47:55.335Z,29.46
2018-05-13T07:50:23.115Z,29.77
2018-05-13T07:52:50.512Z,30.04
2018-05-13T07:55:17.922Z,30.19
2018-05-13T07:57:45.337Z,30.43
2018-05-13T08:00:12.744Z,30.41
2018-05-13T08:02:40.165Z,30.78
2018-05-13T08:05:07.893Z,30.84
2018-05-13T08:07:35.301Z,30.90
2018-05-13T08:10:02.707Z,30.53
2018-05-13T08:12:30.445Z,30.34
2018-05-13T08:14:57.959Z,30.08
2018-05-13T08:17:25.367Z,29.68
2018-05-13T08:19:52.806Z,29.42
2018-05-13T08:22:20.263Z,29.35
2018-05-13T08:24:47.668Z,29.34
2018-05-13T08:27:15.396Z,29.70
2018-05-13T08:29:42.803Z,29.72
2018-05-13T08:32:10.252Z,29.85
2018-05-13T08:34:37.877Z,29.89
2018-05-13T08:37:05.280Z,29.96
2018-05-13T08:39:35.160Z,30.07
2018-05-13T08:42:02.671Z,29.96
2018-05-13T08:44:30.334Z,30.07
2018-05-13T08:46:57.788Z,29.96
2018-05-13T08:49:25.382Z,29.82
2018-05-13T08:51:53.336Z,29.62
2018-05-13T08:54:21.335Z,29.48
2018-05-13T08:56:49.067Z,29.50
2018-05-13T08:59:16.476Z,29.41
2018-05-13T09:01:44.008Z,29.45
2018-05-13T09:04:11.525Z,29.49
2018-05-13T09:06:39.325Z,29.58
2018-05-13T09:09:06.733Z,29.77
2018-05-13T09:11:34.387Z,29.98
2018-05-13T09:14:02.377Z,29.70
2018-05-13T09:16:29.915Z,29.89
2018-05-13T09:18:57.462Z,29.87
2018-05-13T09:21:24.884Z,30.18
2018-05-13T09:23:52.552Z,30.67
2018-05-13T09:26:20.013Z,31.02
2018-05-13T09:28:47.540Z,31.29
2018-05-13T09:31:15.827Z,31.28
2018-05-13T09:33:43.351Z,31.53
2018-05-13T09:36:10.776Z,31.74
2018-05-13T09:38:38.395Z,31.62
2018-05-13T09:41:05.918Z,31.84
2018-05-13T09:43:33.477Z,32.06
2018-05-13T09:46:01.320Z,32.08
2018-05-13T09:48:28.860Z,31.80
2018-05-13T09:50:56.311Z,31.72
2018-05-13T09:53:23.996Z,31.69
2018-05-13T09:55:51.642Z,31.32
2018-05-13T09:58:19.137Z,30.53
2018-05-13T10:00:46.699Z,30.12
2018-05-13T10:03:14.191Z,29.84
2018-05-13T10:05:41.664Z,29.08
2018-05-13T10:08:09.115Z,28.89
2018-05-13T10:10:36.572Z,28.74
2018-05-13T10:13:04.091Z,28.56
2018-05-13T10:15:31.543Z,28.54
2018-05-13T10:17:59.431Z,28.36
2018-05-13T10:20:26.891Z,28.12
2018-05-13T10:22:54.410Z,28.13
2018-05-13T10:25:21.862Z,28.17
2018-05-13T10:27:49.340Z,28.19
2018-05-13T10:30:16.832Z,28.13
2018-05-13T10:32:44.308Z,28.07
2018-05-13T10:35:11.845Z,27.96
2018-05-13T10:37:40.713Z,27.80
2018-05-13T10:40:08.273Z,27.69
2018-05-13T10:42:35.821Z,27.47
2018-05-13T10:45:03.928Z,27.42
2018-05-13T10:47:31.348Z,27.33
2018-05-13T10:49:58.848Z,27.34
2018-05-13T10:52:26.519Z,27.37
2018-05-13T10:54:54.020Z,27.40
2018-05-13T10:57:21.909Z,27.41
2018-05-13T10:59:49.336Z,27.39
2018-05-13T11:02:17.129Z,27.47
2018-05-13T11:04:44.742Z,27.54
2018-05-13T11:07:12.170Z,27.65
2018-05-13T11:09:40.016Z,27.66
2018-05-13T11:12:07.484Z,27.60
2018-05-13T11:14:35.016Z,27.74
2018-05-13T11:17:02.481Z,27.73
2018-05-13T11:19:30.031Z,27.75
2018-05-13T11:21:57.456Z,27.88
2018-05-13T11:24:25.169Z,27.95
2018-05-13T11:26:52.815Z,28.18
2018-05-13T11:29:20.424Z,28.32
2018-05-13T11:31:48.088Z,28.38
2018-05-13T11:34:15.984Z,28.49
2018-05-13T11:36:44.743Z,28.70
2018-05-13T11:39:12.309Z,28.75
2018-05-13T11:41:39.891Z,28.63
2018-05-13T11:44:07.353Z,28.74
2018-05-13T11:46:35.177Z,28.73
2018-05-13T11:49:02.635Z,28.82
2018-05-13T11:51:30.441Z,28.98
2018-05-13T11:53:58.352Z,29.04
2018-05-13T11:56:25.866Z,28.84
2018-05-13T11:58:53.670Z,28.66
2018-05-13T12:01:21.224Z,28.57
2018-05-13T12:03:48.696Z,28.52
2018-05-13T12:06:16.118Z,28.53
2018-05-13T12:08:43.553Z,28.73
2018-05-13T12:11:11.551Z,28.92
2018-05-13T12:13:38.955Z,29.04
2018-05-13T12:16:06.618Z,28.99
2018-05-13T12:18:34.139Z,28.87
2018-05-13T12:21:01.545Z,28.82
2018-05-13T12:23:28.967Z,28.72
2018-05-13T12:25:56.423Z,28.55
2018-05-13T12:28:23.880Z,28.36
2018-05-13T12:30:51.537Z,28.12
2018-05-13T12:33:19.258Z,27.99
2018-05-13T12:35:46.655Z,27.94
2018-05-13T12:38:14.088Z,27.91
2018-05-13T12:40:41.512Z,27.88
2018-05-13T12:43:09.045Z,27.80
2018-05-13T12:45:36.449Z,27.86
2018-05-13T12:48:03.972Z,27.75
2018-05-13T12:50:31.407Z,27.76
2018-05-13T12:52:58.843Z,27.74
2018-05-13T12:55:26.261Z,27.72
2018-05-13T12:57:56.837Z,27.78
2018-05-13T13:00:24.288Z,27.73
2018-05-13T13:02:51.777Z,27.72
2018-05-13T13:05:19.220Z,27.68
2018-05-13T13:07:46.682Z,27.56
2018-05-13T13:10:14.068Z,27.46
2018-05-13T13:12:41.484Z,27.44
2018-05-13T13:15:09.140Z,27.58
2018-05-13T13:17:37.460Z,27.78
2018-05-13T13:20:04.975Z,27.78
2018-05-13T13:22:32.290Z,27.86
2018-05-13T13:24:59.715Z,27.93
2018-05-13T13:27:27.120Z,27.87
2018-05-13T13:29:54.591Z,27.79
2018-05-13T13:32:23.036Z,27.71
2018-05-13T13:34:50.435Z,27.72
2018-05-13T13:37:18.318Z,27.57
2018-05-13T13:39:45.780Z,27.59
2018-05-13T13:42:13.457Z,27.60
2018-05-13T13:44:40.959Z,27.60
2018-05-13T13:47:08.507Z,27.54
2018-05-13T13:49:35.918Z,27.46
2018-05-13T13:52:03.412Z,27.42
2018-05-13T13:54:31.969Z,27.45
2018-05-13T13:56:59.375Z,27.39
2018-05-13T13:59:26.874Z,27.32
2018-05-13T14:01:54.375Z,27.07
2018-05-13T14:04:22.023Z,26.59
2018-05-13T14:06:49.445Z,26.21
2018-05-13T14:09:16.946Z,25.61
2018-05-13T14:11:44.493Z,25.20
2018-05-13T14:14:11.928Z,24.73
2018-05-13T14:16:39.442Z,24.27
2018-05-13T14:19:06.844Z,23.96
2018-05-13T14:21:34.332Z,23.64
2018-05-13T14:24:01.944Z,23.15
2018-05-13T14:26:29.475Z,22.47
2018-05-13T14:28:56.944Z,21.91
2018-05-13T14:31:24.357Z,21.59
2018-05-13T14:33:51.835Z,21.41
2018-05-13T14:36:19.351Z,21.26
2018-05-13T14:38:46.856Z,21.15
2018-05-13T14:41:14.350Z,21.07
2018-05-13T14:43:41.835Z,21.05
2018-05-13T14:46:09.303Z,21.00
2018-05-13T14:48:36.708Z,20.77
2018-05-13T14:51:04.436Z,20.59
2018-05-13T14:53:33.644Z,20.41
2018-05-13T14:56:01.092Z,20.31
2018-05-13T14:58:28.753Z,20.29
2018-05-13T15:00:56.260Z,20.20
2018-05-13T15:03:23.663Z,20.11
2018-05-13T15:05:51.864Z,20.07
2018-05-13T15:08:19.915Z,20.07
2018-05-13T15:10:47.678Z,20.07
2018-05-13T15:13:15.092Z,20.11
2018-05-13T15:15:42.564Z,20.15
2018-05-13T15:18:10.170Z,20.21
2018-05-13T15:20:39.378Z,20.33
2018-05-13T15:23:06.829Z,20.33
2018-05-13T15:25:34.284Z,20.30
2018-05-13T15:28:01.697Z,20.26
2018-05-13T15:30:29.372Z,20.19
2018-05-13T15:32:56.775Z,20.16
2018-05-13T15:35:24.347Z,20.14
2018-05-13T15:37:51.793Z,20.04
2018-05-13T15:40:19.331Z,20.08
2018-05-13T15:42:46.960Z,20.03
2018-05-13T15:45:14.491Z,19.90
2018-05-13T15:47:42.072Z,19.84
2018-05-13T15:50:09.561Z,19.67
2018-05-13T15:52:37.253Z,19.55
2018-05-13T15:55:04.846Z,19.43
2018-05-13T15:57:32.257Z,19.33
2018-05-13T15:59:59.758Z,19.24
2018-05-13T16:02:27.171Z,19.11
2018-05-13T16:04:54.609Z,19.08
2018-05-13T16:07:22.044Z,19.01
2018-05-13T16:09:49.451Z,18.87
2018-05-13T16:12:16.974Z,18.70
2018-05-13T16:14:44.283Z,18.51
2018-05-13T16:17:11.994Z,18.34
2018-05-13T16:19:39.477Z,18.11
2018-05-13T16:22:06.948Z,17.95
2018-05-13T16:24:34.395Z,17.67
2018-05-13T16:27:01.792Z,17.58
2018-05-13T16:29:29.220Z,17.38
2018-05-13T16:31:56.619Z,16.92
2018-05-13T16:34:24.040Z,16.78
2018-05-13T16:36:51.443Z,16.81
2018-05-13T16:39:18.847Z,16.74
2018-05-13T16:41:46.475Z,16.67
2018-05-13T16:44:13.883Z,16.71
2018-05-13T16:46:41.288Z,16.83
2018-05-13T16:49:08.989Z,16.91
2018-05-13T16:51:36.409Z,16.92
2018-05-13T16:54:03.815Z,16.94
2018-05-13T16:56:31.235Z,17.03
2018-05-13T16:58:58.698Z,17.08
2018-05-13T17:01:26.460Z,17.11
2018-05-13T17:03:53.879Z,17.15
2018-05-13T17:06:21.289Z,17.20
2018-05-13T17:08:48.705Z,17.23
2018-05-13T17:11:16.109Z,17.24
2018-05-13T17:13:43.669Z,17.23
2018-05-13T17:16:11.076Z,17.24
2018-05-13T17:18:38.483Z,17.28
2018-05-13T17:21:06.227Z,17.33
2018-05-13T17:23:33.639Z,17.39
2018-05-13T17:26:01.036Z,17.44
2018-05-13T17:28:28.468Z,17.48
2018-05-13T17:30:55.871Z,17.54
2018-05-13T17:33:23.295Z,17.60
2018-05-13T17:35:50.728Z,17.63
2018-05-13T17:38:18.143Z,17.60
2018-05-13T17:40:45.572Z,17.64
2018-05-13T17:43:12.984Z,17.68
2018-05-13T17:45:40.399Z,17.72
2018-05-13T17:48:07.821Z,17.74
2018-05-13T17:50:35.228Z,17.75
2018-05-13T17:53:02.647Z,17.76
2018-05-13T17:55:30.048Z,17.74
2018-05-13T17:57:57.457Z,17.72
2018-05-13T18:00:24.872Z,17.68
2018-05-13T18:02:52.271Z,17.65
2018-05-13T18:05:20.378Z,17.60
2018-05-13T18:07:47.788Z,17.59
2018-05-13T18:10:15.205Z,17.58
2018-05-13T18:12:42.612Z,17.58
2018-05-13T18:15:10.072Z,17.55
2018-05-13T18:17:37.743Z,17.49
2018-05-13T18:20:05.143Z,17.49
2018-05-13T18:22:32.547Z,17.49
2018-05-13T18:24:59.969Z,17.50
2018-05-13T18:27:27.392Z,17.56
2018-05-13T18:29:54.811Z,17.61
2018-05-13T18:32:22.224Z,17.64
2018-05-13T18:34:49.644Z,17.52
2018-05-13T18:37:17.171Z,17.39
2018-05-13T18:39:44.610Z,17.34
2018-05-13T18:42:12.019Z,17.28
2018-05-13T18:44:39.459Z,17.25
2018-05-13T18:47:06.864Z,17.24
2018-05-13T18:49:34.280Z,17.24
2018-05-13T18:52:01.699Z,17.06
2018-05-13T18:54:29.189Z,16.97
2018-05-13T18:56:56.521Z,17.00
2018-05-13T18:59:23.920Z,16.99
2018-05-13T19:01:51.335Z,16.99
2018-05-13T19:04:18.757Z,17.00
2018-05-13T19:06:46.160Z,17.03
2018-05-13T19:09:13.564Z,17.06
2018-05-13T19:11:40.995Z,17.07
2018-05-13T19:14:08.626Z,17.08
2018-05-13T19:16:36.373Z,17.04
2018-05-13T19:19:03.868Z,17.04
2018-05-13T19:21:31.231Z,17.05
2018-05-13T19:23:58.677Z,17.07
2018-05-13T19:26:26.093Z,17.11
2018-05-13T19:28:53.499Z,17.12
2018-05-13T19:31:20.920Z,17.14
2018-05-13T19:33:48.350Z,17.15
2018-05-13T19:36:15.841Z,17.15
2018-05-13T19:38:43.326Z,17.07
2018-05-13T19:41:11.016Z,17.08
2018-05-13T19:43:38.430Z,17.08
2018-05-13T19:46:05.833Z,17.04
2018-05-13T19:48:34.881Z,16.97
2018-05-13T19:51:03.260Z,16.97
2018-05-13T19:53:31.031Z,17.04
2018-05-13T19:55:58.449Z,17.10
2018-05-13T19:58:25.872Z,17.12
2018-05-13T20:00:53.440Z,17.03
2018-05-13T20:03:21.042Z,16.93
2018-05-13T20:05:48.251Z,16.92
2018-05-13T20:08:15.676Z,17.00
2018-05-13T20:10:43.088Z,17.00
2018-05-13T20:13:10.824Z,16.98
2018-05-13T20:15:38.288Z,16.95
2018-05-13T20:18:05.923Z,16.93
2018-05-13T20:20:35.986Z,16.87
2018-05-13T20:23:15.106Z,16.85
2018-05-13T20:25:42.547Z,16.85
2018-05-13T20:28:09.996Z,16.85
2018-05-13T20:30:37.641Z,16.85
2018-05-13T20:33:05.971Z,16.83
2018-05-13T20:35:33.396Z,16.79
2018-05-13T20:38:00.828Z,16.72
2018-05-13T20:40:28.233Z,16.72
2018-05-13T20:42:56.055Z,16.71
2018-05-13T20:45:23.474Z,16.71
2018-05-13T20:47:51.096Z,16.72
2018-05-13T20:50:18.532Z,16.70
2018-05-13T20:52:45.973Z,16.68
2018-05-13T20:55:13.408Z,16.67
2018-05-13T20:57:40.906Z,16.67
2018-05-13T21:00:08.555Z,16.68
2018-05-13T21:02:36.296Z,16.67
2018-05-13T21:05:03.732Z,16.67
2018-05-13T21:07:31.169Z,16.66
2018-05-13T21:09:58.569Z,16.65
2018-05-13T21:12:25.973Z,16.65
2018-05-13T21:14:53.404Z,16.65
2018-05-13T21:17:20.838Z,16.64
2018-05-13T21:19:48.242Z,16.63
2018-05-13T21:22:15.668Z,16.60
2018-05-13T21:24:43.171Z,16.57
2018-05-13T21:27:10.600Z,16.54
2018-05-13T21:29:38.028Z,16.53
2018-05-13T21:32:05.451Z,16.53
2018-05-13T21:34:33.091Z,16.51
2018-05-13T21:37:00.547Z,16.51
2018-05-13T21:39:27.960Z,16.50
2018-05-13T21:41:55.760Z,16.50
2018-05-13T21:44:23.183Z,16.46
2018-05-13T21:46:50.588Z,16.41
2018-05-13T21:49:18.021Z,16.36
2018-05-13T21:51:45.429Z,16.27
2018-05-13T21:54:12.887Z,16.26
2018-05-13T21:56:40.292Z,16.28
2018-05-13T21:59:07.700Z,16.28
2018-05-13T22:01:35.119Z,16.28
2018-05-13T22:04:02.527Z,16.27
2018-05-13T22:06:29.949Z,16.25
2018-05-13T22:08:57.364Z,16.22
2018-05-13T22:11:24.785Z,16.21
2018-05-13T22:13:52.204Z,16.19
2018-05-13T22:16:19.632Z,16.17
2018-05-13T22:18:47.092Z,16.16
2018-05-13T22:21:14.499Z,16.13
2018-05-13T22:23:41.928Z,16.12
2018-05-13T22:26:09.335Z,16.09
2018-05-13T22:28:37.072Z,16.10
2018-05-13T22:31:04.489Z,16.06
2018-05-13T22:33:31.904Z,16.07
2018-05-13T22:35:59.333Z,16.05
2018-05-13T22:38:26.756Z,16.03
2018-05-13T22:40:54.185Z,16.02
2018-05-13T22:43:21.600Z,16.01
2018-05-13T22:45:49.039Z,16.00
2018-05-13T22:48:16.453Z,15.98
2018-05-13T22:50:43.860Z,15.97
2018-05-13T22:53:11.374Z,15.95
2018-05-13T22:55:38.708Z,15.93
2018-05-13T22:58:06.116Z,15.91
2018-05-13T23:00:33.560Z,15.90
2018-05-13T23:03:01.374Z,15.89
2018-05-13T23:05:28.803Z,15.88
2018-05-13T23:07:56.199Z,15.86
2018-05-13T23:10:23.959Z,15.85
2018-05-13T23:12:51.380Z,15.84
2018-05-13T23:15:18.801Z,15.82
2018-05-13T23:17:46.238Z,15.80
2018-05-13T23:20:13.655Z,15.78
2018-05-13T23:22:41.080Z,15.75
2018-05-13T23:25:08.506Z,15.75
2018-05-13T23:27:35.925Z,15.74
2018-05-13T23:30:03.336Z,15.72
2018-05-13T23:32:30.769Z,15.71
2018-05-13T23:34:58.179Z,15.67
2018-05-13T23:37:25.588Z,15.67
2018-05-13T23:39:53.013Z,15.65
2018-05-13T23:42:20.425Z,15.62
2018-05-13T23:44:48.236Z,15.60
2018-05-13T23:47:15.726Z,15.56
2018-05-13T23:49:43.060Z,15.50
2018-05-13T23:52:10.485Z,15.48
2018-05-13T23:54:37.899Z,15.47
2018-05-13T23:57:05.680Z,15.47
2018-05-13T23:59:33.086Z,15.46
